Time;durP1;ratioP1;P1;durP2;ratioP2;P2;SDS_P1;SDS_P2;PMS_P1;PMS_P2;Temp;Humidity;BMP_temperature;BMP_pressure;BME280_temperature;BME280_humidity;BME280_pressure;Samples;Min_cycle;Max_cycle;Signal;HPM_P1;HPM_P2
2022/02/20 00:00:16;;;;;;;5.57;1.30;;;;;;;;;;524240;28;1886;-74
2022/02/20 00:00:33;;;;;;;4.43;1.20;;;;;;;;;;528317;27;972;-75
2022/02/20 00:00:49;;;;;;;4.50;1.20;;;;;;;;;;527992;28;1253;-74
2022/02/20 00:01:04;;;;;;;5.00;1.30;;;;;;;;;;528028;27;1225;-73
2022/02/20 00:01:20;;;;;;;5.23;1.30;;;;;;;;;;528129;28;1235;-74
2022/02/20 00:01:37;;;;;;;4.65;1.30;;;;;;;;;;528379;28;914;-72
2022/02/20 00:01:54;;;;;;;5.18;1.30;;;;;;;;;;527992;28;1143;-72
2022/02/20 00:02:09;;;;;;;6.05;1.20;;;;;;;;;;527140;28;1018;-72
2022/02/20 00:02:25;;;;;;;6.20;1.20;;;;;;;;;;526164;28;736;-73
2022/02/20 00:02:40;;;;;;;6.40;1.40;;;;;;;;;;526779;28;816;-74
2022/02/20 00:02:55;;;;;;;6.63;1.43;;;;;;;;;;528417;27;736;-73
2022/02/20 00:03:10;;;;;;;4.93;1.20;;;;;;;;;;528276;28;1154;-74
2022/02/20 00:03:26;;;;;;;4.97;1.33;;;;;;;;;;526639;28;937;-74
2022/02/20 00:03:41;;;;;;;5.87;1.70;;;;;;;;;;529001;27;1406;-72
2022/02/20 00:03:59;;;;;;;6.18;1.65;;;;;;;;;;528009;28;895;-74
2022/02/20 00:04:14;;;;;;;5.53;1.58;;;;;;;;;;528130;28;795;-73
2022/02/20 00:04:29;;;;;;;4.63;1.43;;;;;;;;;;529920;27;770;-72
2022/02/20 00:04:45;;;;;;;5.50;1.65;;;;;;;;;;529535;27;894;-74
2022/02/20 00:05:03;;;;;;;5.37;1.57;;;;;;;;;;529070;27;1538;-73
2022/02/20 00:05:21;;;;;;;5.65;1.30;;;;;;;;;;528626;27;863;-74
2022/02/20 00:05:36;;;;;;;5.40;1.30;;;;;;;;;;528031;28;878;-73
2022/02/20 00:05:51;;;;;;;5.97;1.30;;;;;;;;;;526845;28;1270;-73
2022/02/20 00:06:08;;;;;;;5.18;1.30;;;;;;;;;;525830;28;1211;-74
2022/02/20 00:06:23;;;;;;;4.65;1.30;;;;;;;;;;525851;28;716;-73
2022/02/20 00:06:41;;;;;;;5.33;1.47;;;;;;;;;;526323;28;819;-73
2022/02/20 00:06:56;;;;;;;4.80;1.30;;;;;;;;;;525908;28;957;-74
2022/02/20 00:07:14;;;;;;;6.07;1.20;;;;;;;;;;526172;28;791;-74
2022/02/20 00:07:32;;;;;;;7.00;1.40;;;;;;;;;;525957;28;800;-74
2022/02/20 00:07:53;;;;;;;4.53;1.45;;;;;;;;;;527363;28;831;-74
2022/02/20 00:08:13;;;;;;;5.07;1.50;;;;;;;;;;530251;27;1051;-74
2022/02/20 00:08:31;;;;;;;5.22;1.40;;;;;;;;;;530265;27;1012;-73
2022/02/20 00:08:46;;;;;;;4.07;1.30;;;;;;;;;;530529;27;1142;-74
2022/02/20 00:09:02;;;;;;;4.43;1.40;;;;;;;;;;527199;28;1342;-74
2022/02/20 00:09:18;;;;;;;4.72;1.42;;;;;;;;;;529065;27;938;-73
2022/02/20 00:09:33;;;;;;;4.47;1.37;;;;;;;;;;530478;27;689;-73
2022/02/20 00:09:51;;;;;;;5.55;1.50;;;;;;;;;;530327;27;741;-74
2022/02/20 00:10:06;;;;;;;5.32;1.33;;;;;;;;;;524859;28;1523;-73
2022/02/20 00:10:22;;;;;;;5.55;1.33;;;;;;;;;;524386;28;1105;-75
2022/02/20 00:10:38;;;;;;;5.55;1.40;;;;;;;;;;523659;28;1302;-74
2022/02/20 00:10:53;;;;;;;3.97;1.30;;;;;;;;;;524750;28;1185;-74
2022/02/20 00:11:08;;;;;;;4.55;1.33;;;;;;;;;;525807;28;745;-74
2022/02/20 00:11:24;;;;;;;5.23;1.40;;;;;;;;;;523842;28;1208;-73
2022/02/20 00:11:39;;;;;;;4.13;1.25;;;;;;;;;;524280;28;1314;-74
2022/02/20 00:11:55;;;;;;;4.30;1.40;;;;;;;;;;526244;28;1487;-73
2022/02/20 00:12:10;;;;;;;4.80;1.50;;;;;;;;;;528090;28;1258;-74
2022/02/20 00:12:25;;;;;;;4.47;1.40;;;;;;;;;;526294;28;1348;-75
2022/02/20 00:12:41;;;;;;;5.50;1.40;;;;;;;;;;530164;27;1567;-75
2022/02/20 00:12:59;;;;;;;5.80;1.50;;;;;;;;;;527348;28;1412;-74
2022/02/20 00:13:15;;;;;;;4.88;1.30;;;;;;;;;;525720;28;1119;-73
2022/02/20 00:13:31;;;;;;;5.82;1.33;;;;;;;;;;526204;28;831;-73
2022/02/20 00:13:46;;;;;;;5.32;1.40;;;;;;;;;;523740;28;1387;-74
2022/02/20 00:14:02;;;;;;;5.23;1.30;;;;;;;;;;524447;28;1072;-74
2022/02/20 00:14:17;;;;;;;4.95;1.30;;;;;;;;;;525473;28;1181;-74
2022/02/20 00:14:33;;;;;;;5.37;1.37;;;;;;;;;;525742;28;1193;-73
2022/02/20 00:14:48;;;;;;;6.03;1.27;;;;;;;;;;525846;28;985;-73
2022/02/20 00:15:04;;;;;;;5.97;1.23;;;;;;;;;;522464;28;1890;-75
2022/02/20 00:15:20;;;;;;;6.20;1.40;;;;;;;;;;521511;28;854;-75
2022/02/20 00:15:35;;;;;;;5.55;1.38;;;;;;;;;;523633;28;769;-75
2022/02/20 00:15:50;;;;;;;5.60;1.40;;;;;;;;;;525178;28;788;-75
2022/02/20 00:16:06;;;;;;;5.87;1.47;;;;;;;;;;524645;28;1410;-74
2022/02/20 00:16:26;;;;;;;5.50;1.40;;;;;;;;;;524576;28;709;-74
2022/02/20 00:16:42;;;;;;;6.18;1.40;;;;;;;;;;527352;28;903;-75
2022/02/20 00:16:57;;;;;;;5.90;1.50;;;;;;;;;;528466;28;776;-74
2022/02/20 00:17:13;;;;;;;5.47;1.50;;;;;;;;;;527974;28;934;-74
2022/02/20 00:17:28;;;;;;;5.22;1.30;;;;;;;;;;527946;28;759;-73
2022/02/20 00:17:43;;;;;;;6.07;1.30;;;;;;;;;;529323;27;787;-73
2022/02/20 00:18:01;;;;;;;6.57;1.40;;;;;;;;;;530489;27;744;-73
2022/02/20 00:18:16;;;;;;;5.57;1.30;;;;;;;;;;530282;27;783;-74
2022/02/20 00:18:32;;;;;;;4.25;1.10;;;;;;;;;;530637;27;791;-74
2022/02/20 00:18:49;;;;;;;4.13;1.10;;;;;;;;;;530460;27;732;-74
2022/02/20 00:19:04;;;;;;;5.55;1.20;;;;;;;;;;529194;27;811;-73
2022/02/20 00:19:20;;;;;;;5.60;1.23;;;;;;;;;;527978;28;1223;-75
2022/02/20 00:19:38;;;;;;;4.90;1.30;;;;;;;;;;527926;28;756;-73
2022/02/20 00:19:53;;;;;;;5.93;1.30;;;;;;;;;;525894;28;1424;-74
2022/02/20 00:20:09;;;;;;;6.97;1.30;;;;;;;;;;526489;28;1334;-73
2022/02/20 00:20:25;;;;;;;5.55;1.30;;;;;;;;;;523270;28;1344;-73
2022/02/20 00:20:44;;;;;;;4.95;1.13;;;;;;;;;;524070;28;827;-74
2022/02/20 00:21:00;;;;;;;5.50;1.40;;;;;;;;;;527262;28;1088;-73
2022/02/20 00:21:17;;;;;;;4.60;1.27;;;;;;;;;;525570;28;1159;-75
2022/02/20 00:21:35;;;;;;;4.88;1.30;;;;;;;;;;523689;28;1112;-74
2022/02/20 00:21:51;;;;;;;5.88;1.42;;;;;;;;;;525547;28;1718;-74
2022/02/20 00:22:09;;;;;;;5.57;1.40;;;;;;;;;;526042;28;838;-74
2022/02/20 00:22:27;;;;;;;5.05;1.38;;;;;;;;;;527996;28;836;-74
2022/02/20 00:22:43;;;;;;;5.00;1.30;;;;;;;;;;528440;28;768;-73
2022/02/20 00:23:07;;;;;;;6.23;1.20;;;;;;;;;;528261;28;851;-73
2022/02/20 00:23:25;;;;;;;6.18;1.30;;;;;;;;;;529685;27;922;-73
2022/02/20 00:23:43;;;;;;;6.53;1.52;;;;;;;;;;527721;28;1742;-75
2022/02/20 00:23:58;;;;;;;6.45;1.65;;;;;;;;;;527904;27;783;-73
2022/02/20 00:24:16;;;;;;;5.95;1.48;;;;;;;;;;528073;28;1137;-74
2022/02/20 00:24:31;;;;;;;5.22;1.25;;;;;;;;;;528275;28;843;-74
2022/02/20 00:24:46;;;;;;;4.45;1.15;;;;;;;;;;527172;28;1513;-73
2022/02/20 00:25:04;;;;;;;4.27;1.20;;;;;;;;;;526942;28;1456;-73
2022/02/20 00:25:19;;;;;;;5.22;1.33;;;;;;;;;;525187;28;1325;-76
2022/02/20 00:25:36;;;;;;;5.90;1.33;;;;;;;;;;525353;28;765;-74
2022/02/20 00:25:52;;;;;;;4.95;1.30;;;;;;;;;;525642;28;1133;-74
2022/02/20 00:26:07;;;;;;;5.27;1.40;;;;;;;;;;526094;28;854;-74
2022/02/20 00:26:22;;;;;;;5.75;1.30;;;;;;;;;;524125;28;1517;-73
2022/02/20 00:26:40;;;;;;;5.60;1.17;;;;;;;;;;525455;28;736;-74
2022/02/20 00:26:55;;;;;;;5.35;1.10;;;;;;;;;;526189;28;839;-74
2022/02/20 00:27:11;;;;;;;4.10;1.20;;;;;;;;;;526202;28;881;-73
2022/02/20 00:27:31;;;;;;;4.20;1.33;;;;;;;;;;523919;28;1340;-72
2022/02/20 00:27:50;;;;;;;5.28;1.40;;;;;;;;;;524446;28;855;-74
2022/02/20 00:28:06;;;;;;;4.28;1.25;;;;;;;;;;523952;28;1290;-74
2022/02/20 00:28:24;;;;;;;5.40;1.20;;;;;;;;;;523927;28;1166;-74
2022/02/20 00:28:39;;;;;;;4.90;1.10;;;;;;;;;;521879;28;1336;-74
2022/02/20 00:29:00;;;;;;;4.17;1.20;;;;;;;;;;521808;28;1144;-74
2022/02/20 00:29:15;;;;;;;4.82;1.15;;;;;;;;;;522417;28;1265;-75
2022/02/20 00:29:31;;;;;;;4.90;1.23;;;;;;;;;;522212;28;1041;-73
2022/02/20 00:29:46;;;;;;;5.00;1.20;;;;;;;;;;523938;28;1294;-73
2022/02/20 00:30:02;;;;;;;5.30;1.20;;;;;;;;;;524845;28;1592;-73
2022/02/20 00:30:20;;;;;;;4.93;1.23;;;;;;;;;;523751;28;1208;-73
2022/02/20 00:30:36;;;;;;;4.20;1.20;;;;;;;;;;523050;28;859;-73
2022/02/20 00:30:51;;;;;;;4.90;1.23;;;;;;;;;;524098;28;855;-73
2022/02/20 00:31:06;;;;;;;5.13;1.20;;;;;;;;;;520688;28;1226;-73
2022/02/20 00:31:22;;;;;;;3.90;1.10;;;;;;;;;;520733;28;927;-74
2022/02/20 00:31:37;;;;;;;3.53;1.13;;;;;;;;;;520444;28;1126;-74
2022/02/20 00:31:52;;;;;;;4.27;1.20;;;;;;;;;;521795;28;823;-73
2022/02/20 00:32:08;;;;;;;5.78;1.30;;;;;;;;;;524706;28;756;-74
2022/02/20 00:32:25;;;;;;;5.55;1.30;;;;;;;;;;526420;28;774;-73
2022/02/20 00:32:40;;;;;;;5.07;1.42;;;;;;;;;;528429;28;838;-74
2022/02/20 00:32:58;;;;;;;5.17;1.40;;;;;;;;;;528744;28;812;-74
2022/02/20 00:33:14;;;;;;;5.28;1.20;;;;;;;;;;530082;27;810;-73
2022/02/20 00:33:29;;;;;;;6.05;1.35;;;;;;;;;;530382;27;755;-73
2022/02/20 00:33:47;;;;;;;5.37;1.40;;;;;;;;;;530385;27;771;-73
2022/02/20 00:34:02;;;;;;;4.15;1.20;;;;;;;;;;527392;28;1012;-74
2022/02/20 00:34:18;;;;;;;5.20;1.33;;;;;;;;;;527748;28;1075;-73
2022/02/20 00:34:33;;;;;;;5.43;1.27;;;;;;;;;;527952;28;736;-73
2022/02/20 00:34:48;;;;;;;4.50;1.20;;;;;;;;;;528717;27;1277;-74
2022/02/20 00:35:09;;;;;;;5.75;1.30;;;;;;;;;;527619;27;1992;-74
2022/02/20 00:35:26;;;;;;;4.68;1.17;;;;;;;;;;526088;28;1423;-73
2022/02/20 00:35:42;;;;;;;4.82;1.10;;;;;;;;;;529795;27;839;-75
2022/02/20 00:36:00;;;;;;;5.18;1.13;;;;;;;;;;526905;28;1423;-74
2022/02/20 00:36:21;;;;;;;4.85;1.30;;;;;;;;;;527534;28;1322;-74
2022/02/20 00:36:38;;;;;;;5.85;1.50;;;;;;;;;;526355;28;847;-75
2022/02/20 00:36:57;;;;;;;5.72;1.20;;;;;;;;;;528230;28;918;-74
2022/02/20 00:37:18;;;;;;;4.60;1.20;;;;;;;;;;529905;27;776;-76
2022/02/20 00:37:33;;;;;;;4.15;1.20;;;;;;;;;;528271;28;903;-74
2022/02/20 00:37:51;;;;;;;4.53;1.30;;;;;;;;;;529183;27;736;-75
2022/02/20 00:38:07;;;;;;;4.63;1.23;;;;;;;;;;526145;28;1253;-75
2022/02/20 00:38:31;;;;;;;5.22;1.25;;;;;;;;;;523763;28;1530;-76
2022/02/20 00:39:35;;;;;;;3.58;1.20;;;;;;;;;;523839;28;1180;-75
2022/02/20 00:43:29;;;;;;;6.07;1.20;;;;;;;;;;527663;28;1117;-75
2022/02/20 00:45:49;;;;;;;5.50;1.48;;;;;;;;;;523695;28;1188;-76
2022/02/20 00:46:31;;;;;;;4.20;1.30;;;;;;;;;;515800;28;1226;-75
2022/02/20 00:46:59;;;;;;;3.58;1.10;;;;;;;;;;512480;28;1132;-75
2022/02/20 00:48:57;;;;;;;6.68;1.60;;;;;;;;;;504430;29;1249;-75
2022/02/20 00:49:33;;;;;;;5.03;1.27;;;;;;;;;;505732;29;1133;-74
2022/02/20 00:50:38;;;;;;;4.18;1.38;;;;;;;;;;503985;29;803;-75
2022/02/20 00:51:39;;;;;;;6.07;1.35;;;;;;;;;;502267;29;1401;-75
2022/02/20 00:53:53;;;;;;;5.38;1.35;;;;;;;;;;511612;29;1251;-74
2022/02/20 00:56:15;;;;;;;5.40;1.35;;;;;;;;;;513236;28;1485;-75
2022/02/20 00:56:50;;;;;;;5.20;1.30;;;;;;;;;;511624;29;860;-75
2022/02/20 00:57:20;;;;;;;5.40;1.30;;;;;;;;;;511796;28;1495;-75
2022/02/20 00:57:35;;;;;;;4.43;1.30;;;;;;;;;;511317;29;1140;-75
2022/02/20 00:58:32;;;;;;;4.37;1.30;;;;;;;;;;513142;28;807;-75
2022/02/20 01:01:18;;;;;;;5.45;1.40;;;;;;;;;;503213;29;1619;-74
2022/02/20 01:02:44;;;;;;;5.28;1.40;;;;;;;;;;505284;29;1337;-74
2022/02/20 01:02:59;;;;;;;5.70;1.52;;;;;;;;;;505495;29;1383;-74
2022/02/20 01:03:15;;;;;;;6.78;1.60;;;;;;;;;;508423;29;1164;-75
2022/02/20 01:04:17;;;;;;;6.43;1.50;;;;;;;;;;509559;29;1015;-74
2022/02/20 01:04:36;;;;;;;4.38;1.42;;;;;;;;;;507428;29;991;-75
2022/02/20 01:04:59;;;;;;;5.28;1.40;;;;;;;;;;514596;28;1269;-75
2022/02/20 01:06:33;;;;;;;5.55;1.40;;;;;;;;;;517772;28;1119;-75
2022/02/20 01:06:49;;;;;;;5.22;1.40;;;;;;;;;;519016;28;798;-74
2022/02/20 01:07:04;;;;;;;5.80;1.30;;;;;;;;;;519351;28;1159;-75
2022/02/20 01:07:21;;;;;;;5.55;1.30;;;;;;;;;;517188;28;1022;-74
2022/02/20 01:07:36;;;;;;;4.78;1.50;;;;;;;;;;517425;28;1350;-75
2022/02/20 01:07:51;;;;;;;5.57;1.50;;;;;;;;;;517706;28;849;-76
2022/02/20 01:08:08;;;;;;;6.23;1.30;;;;;;;;;;517543;28;884;-75
2022/02/20 01:08:23;;;;;;;4.68;1.40;;;;;;;;;;517364;28;781;-75
2022/02/20 01:08:39;;;;;;;5.10;1.47;;;;;;;;;;517451;28;813;-75
2022/02/20 01:08:55;;;;;;;5.78;1.60;;;;;;;;;;517887;28;1174;-75
2022/02/20 01:09:10;;;;;;;4.53;1.50;;;;;;;;;;519374;28;967;-74
2022/02/20 01:09:25;;;;;;;4.23;1.30;;;;;;;;;;522835;28;1093;-75
2022/02/20 01:09:41;;;;;;;6.07;1.57;;;;;;;;;;523545;28;1316;-74
2022/02/20 01:09:56;;;;;;;6.18;1.48;;;;;;;;;;523161;28;1521;-76
2022/02/20 01:10:13;;;;;;;5.03;1.30;;;;;;;;;;523751;28;875;-74
2022/02/20 01:10:29;;;;;;;4.32;1.27;;;;;;;;;;523837;28;945;-74
2022/02/20 01:10:45;;;;;;;4.72;1.40;;;;;;;;;;522199;28;610;-75
2022/02/20 01:11:00;;;;;;;4.80;1.35;;;;;;;;;;522538;28;878;-74
2022/02/20 01:11:16;;;;;;;4.37;1.30;;;;;;;;;;523959;28;780;-75
2022/02/20 01:11:31;;;;;;;4.85;1.40;;;;;;;;;;523829;28;1096;-74
2022/02/20 01:11:47;;;;;;;6.17;1.60;;;;;;;;;;525914;28;855;-75
2022/02/20 01:12:02;;;;;;;7.35;1.60;;;;;;;;;;525930;28;855;-74
2022/02/20 01:12:18;;;;;;;7.00;1.48;;;;;;;;;;523798;28;875;-74
2022/02/20 01:12:33;;;;;;;5.57;1.33;;;;;;;;;;524221;28;927;-75
2022/02/20 01:12:49;;;;;;;4.20;1.30;;;;;;;;;;526107;28;911;-74
2022/02/20 01:13:05;;;;;;;4.53;1.40;;;;;;;;;;525836;28;1076;-74
2022/02/20 01:13:21;;;;;;;5.30;1.40;;;;;;;;;;523710;28;1290;-75
2022/02/20 01:13:36;;;;;;;4.70;1.33;;;;;;;;;;523641;28;745;-74
2022/02/20 01:13:52;;;;;;;4.70;1.40;;;;;;;;;;524051;28;906;-74
2022/02/20 01:14:07;;;;;;;5.57;1.38;;;;;;;;;;523315;28;855;-76
2022/02/20 01:14:22;;;;;;;5.73;1.40;;;;;;;;;;525556;28;1168;-74
2022/02/20 01:14:38;;;;;;;5.72;1.48;;;;;;;;;;526040;28;795;-75
2022/02/20 01:14:53;;;;;;;4.87;1.40;;;;;;;;;;525480;28;1985;-76
2022/02/20 01:15:10;;;;;;;4.20;1.20;;;;;;;;;;525142;28;1452;-74
2022/02/20 01:15:25;;;;;;;5.30;1.15;;;;;;;;;;526330;28;1500;-74
2022/02/20 01:15:41;;;;;;;4.87;1.20;;;;;;;;;;525207;28;1191;-74
2022/02/20 01:15:56;;;;;;;4.88;1.35;;;;;;;;;;525719;28;950;-74
2022/02/20 01:16:12;;;;;;;6.00;1.30;;;;;;;;;;525718;28;843;-74
2022/02/20 01:16:27;;;;;;;5.03;1.20;;;;;;;;;;525921;28;865;-74
2022/02/20 01:16:42;;;;;;;5.20;1.38;;;;;;;;;;525757;28;954;-74
2022/02/20 01:16:58;;;;;;;6.13;1.40;;;;;;;;;;525834;28;792;-74
2022/02/20 01:17:14;;;;;;;5.27;1.20;;;;;;;;;;523712;28;1311;-74
2022/02/20 01:17:29;;;;;;;4.55;1.15;;;;;;;;;;523738;28;783;-74
2022/02/20 01:17:45;;;;;;;4.23;1.30;;;;;;;;;;523654;28;962;-73
2022/02/20 01:18:00;;;;;;;4.93;1.50;;;;;;;;;;523547;28;868;-75
2022/02/20 01:18:15;;;;;;;5.70;1.48;;;;;;;;;;524380;28;839;-75
2022/02/20 01:18:31;;;;;;;4.83;1.30;;;;;;;;;;523865;28;1139;-75
2022/02/20 01:18:46;;;;;;;4.87;1.30;;;;;;;;;;524019;28;797;-74
2022/02/20 01:19:02;;;;;;;4.80;1.30;;;;;;;;;;523300;28;962;-76
2022/02/20 01:19:18;;;;;;;3.53;1.10;;;;;;;;;;524031;28;787;-75
2022/02/20 01:19:33;;;;;;;3.57;1.00;;;;;;;;;;523612;28;1147;-74
2022/02/20 01:19:48;;;;;;;4.57;1.17;;;;;;;;;;523104;28;848;-75
2022/02/20 01:20:05;;;;;;;5.07;1.30;;;;;;;;;;523127;28;1436;-75
2022/02/20 01:20:20;;;;;;;4.82;1.40;;;;;;;;;;525689;28;870;-75
2022/02/20 01:20:35;;;;;;;4.53;1.30;;;;;;;;;;525858;28;922;-75
2022/02/20 01:20:51;;;;;;;3.70;1.20;;;;;;;;;;521977;28;1272;-74
2022/02/20 01:21:06;;;;;;;3.70;1.10;;;;;;;;;;522186;28;2350;-73
2022/02/20 01:21:21;;;;;;;3.87;1.00;;;;;;;;;;520485;28;2321;-75
2022/02/20 01:21:37;;;;;;;4.73;1.10;;;;;;;;;;524076;28;1387;-75
2022/02/20 01:21:52;;;;;;;4.75;1.30;;;;;;;;;;523108;28;815;-75
2022/02/20 01:22:08;;;;;;;4.23;1.30;;;;;;;;;;522331;28;780;-74
2022/02/20 01:22:24;;;;;;;4.13;1.10;;;;;;;;;;523411;28;990;-75
2022/02/20 01:22:39;;;;;;;3.58;1.10;;;;;;;;;;523865;28;839;-74
2022/02/20 01:22:55;;;;;;;4.20;1.30;;;;;;;;;;523635;28;1139;-74
2022/02/20 01:23:10;;;;;;;3.63;1.20;;;;;;;;;;523712;28;733;-74
2022/02/20 01:23:25;;;;;;;4.00;1.10;;;;;;;;;;521167;28;1362;-74
2022/02/20 01:23:40;;;;;;;4.77;1.20;;;;;;;;;;521881;28;732;-74
2022/02/20 01:23:56;;;;;;;4.63;1.33;;;;;;;;;;521390;28;794;-73
2022/02/20 01:24:11;;;;;;;4.03;1.30;;;;;;;;;;523270;28;1328;-74
2022/02/20 01:24:26;;;;;;;3.47;1.10;;;;;;;;;;524902;28;936;-75
2022/02/20 01:24:42;;;;;;;3.80;1.20;;;;;;;;;;527941;28;835;-74
2022/02/20 01:24:57;;;;;;;4.60;1.30;;;;;;;;;;528918;28;1472;-74
2022/02/20 01:25:12;;;;;;;5.00;1.37;;;;;;;;;;528422;27;1261;-75
2022/02/20 01:25:28;;;;;;;5.50;1.30;;;;;;;;;;531808;27;969;-74
2022/02/20 01:25:43;;;;;;;5.43;1.20;;;;;;;;;;531474;27;1119;-75
2022/02/20 01:25:58;;;;;;;4.93;1.23;;;;;;;;;;531484;27;905;-74
2022/02/20 01:26:13;;;;;;;4.20;1.20;;;;;;;;;;525379;28;1639;-73
2022/02/20 01:26:29;;;;;;;3.83;1.20;;;;;;;;;;527691;28;1674;-74
2022/02/20 01:26:44;;;;;;;4.37;1.27;;;;;;;;;;527722;28;1663;-74
2022/02/20 01:27:00;;;;;;;4.40;1.20;;;;;;;;;;527811;28;1612;-74
2022/02/20 01:27:15;;;;;;;3.88;1.15;;;;;;;;;;529131;28;792;-75
2022/02/20 01:27:30;;;;;;;4.10;1.17;;;;;;;;;;530042;28;802;-75
2022/02/20 01:27:46;;;;;;;4.35;1.17;;;;;;;;;;528217;28;1434;-75
2022/02/20 01:28:01;;;;;;;4.07;1.30;;;;;;;;;;526419;28;1237;-75
2022/02/20 01:28:17;;;;;;;3.60;1.20;;;;;;;;;;527485;28;816;-75
2022/02/20 01:28:32;;;;;;;3.60;1.00;;;;;;;;;;528391;28;815;-75
2022/02/20 01:28:48;;;;;;;4.15;1.00;;;;;;;;;;528220;28;765;-74
2022/02/20 01:29:04;;;;;;;3.63;1.10;;;;;;;;;;527236;28;1294;-74
2022/02/20 01:29:19;;;;;;;3.33;1.17;;;;;;;;;;527898;28;732;-74
2022/02/20 01:29:34;;;;;;;3.67;1.20;;;;;;;;;;528150;28;793;-74
2022/02/20 01:29:50;;;;;;;3.50;1.20;;;;;;;;;;525993;28;1179;-75
2022/02/20 01:30:05;;;;;;;2.97;1.20;;;;;;;;;;528299;28;1535;-75
2022/02/20 01:30:20;;;;;;;4.78;1.33;;;;;;;;;;529227;28;815;-75
2022/02/20 01:30:36;;;;;;;6.10;1.50;;;;;;;;;;526871;28;1214;-75
2022/02/20 01:30:51;;;;;;;5.83;1.37;;;;;;;;;;528391;28;744;-75
2022/02/20 01:31:07;;;;;;;6.55;1.30;;;;;;;;;;526762;28;866;-75
2022/02/20 01:31:22;;;;;;;5.33;1.30;;;;;;;;;;526236;28;768;-75
2022/02/20 01:31:37;;;;;;;5.25;1.25;;;;;;;;;;526406;28;1265;-75
2022/02/20 01:31:53;;;;;;;5.63;1.33;;;;;;;;;;528090;28;772;-75
2022/02/20 01:32:09;;;;;;;5.28;1.48;;;;;;;;;;527083;28;764;-74
2022/02/20 01:32:24;;;;;;;5.27;1.37;;;;;;;;;;529405;28;906;-74
2022/02/20 01:32:39;;;;;;;4.75;1.20;;;;;;;;;;530364;28;814;-74
2022/02/20 01:32:55;;;;;;;4.43;1.13;;;;;;;;;;530228;28;752;-74
2022/02/20 01:33:10;;;;;;;4.43;1.20;;;;;;;;;;530463;27;747;-74
2022/02/20 01:33:25;;;;;;;4.37;1.40;;;;;;;;;;530250;28;1137;-74
2022/02/20 01:33:41;;;;;;;6.10;1.57;;;;;;;;;;530568;28;1009;-74
2022/02/20 01:33:56;;;;;;;7.13;1.70;;;;;;;;;;529470;28;835;-74
2022/02/20 01:34:11;;;;;;;5.18;1.42;;;;;;;;;;527956;28;1325;-74
2022/02/20 01:34:26;;;;;;;4.23;1.30;;;;;;;;;;527688;28;1286;-74
2022/02/20 01:34:42;;;;;;;4.43;1.40;;;;;;;;;;527658;28;1177;-74
2022/02/20 01:34:57;;;;;;;4.60;1.45;;;;;;;;;;527111;28;1890;-74
2022/02/20 01:35:15;;;;;;;5.27;1.40;;;;;;;;;;526476;28;1005;-74
2022/02/20 01:35:30;;;;;;;5.22;1.42;;;;;;;;;;527277;28;831;-74
2022/02/20 01:35:46;;;;;;;4.73;1.40;;;;;;;;;;527917;28;792;-75
2022/02/20 01:36:01;;;;;;;5.30;1.30;;;;;;;;;;526413;28;1152;-76
2022/02/20 01:36:16;;;;;;;5.13;1.30;;;;;;;;;;528019;28;842;-74
2022/02/20 01:36:32;;;;;;;5.43;1.40;;;;;;;;;;527352;28;1653;-75
2022/02/20 01:36:48;;;;;;;5.43;1.45;;;;;;;;;;530342;28;803;-74
2022/02/20 01:37:03;;;;;;;4.97;1.23;;;;;;;;;;529258;28;1689;-74
2022/02/20 01:37:18;;;;;;;5.07;1.20;;;;;;;;;;530291;28;934;-73
2022/02/20 01:37:34;;;;;;;4.87;1.23;;;;;;;;;;530391;28;910;-74
2022/02/20 01:37:49;;;;;;;4.30;1.20;;;;;;;;;;530495;28;732;-75
2022/02/20 01:38:04;;;;;;;4.60;1.20;;;;;;;;;;528553;27;1489;-74
2022/02/20 01:38:20;;;;;;;4.57;1.20;;;;;;;;;;528114;28;1475;-75
2022/02/20 01:38:35;;;;;;;4.97;1.33;;;;;;;;;;529838;28;1415;-74
2022/02/20 01:38:50;;;;;;;6.33;1.43;;;;;;;;;;530235;28;765;-74
2022/02/20 01:39:06;;;;;;;6.28;1.50;;;;;;;;;;529921;27;946;-75
2022/02/20 01:39:21;;;;;;;5.33;1.40;;;;;;;;;;530522;27;943;-74
2022/02/20 01:39:36;;;;;;;4.93;1.30;;;;;;;;;;529975;28;1050;-74
2022/02/20 01:39:52;;;;;;;4.90;1.40;;;;;;;;;;530387;28;784;-75
2022/02/20 01:40:08;;;;;;;4.53;1.37;;;;;;;;;;529088;28;1552;-75
2022/02/20 01:40:26;;;;;;;4.93;1.30;;;;;;;;;;528273;28;1323;-73
2022/02/20 01:40:43;;;;;;;3.78;1.30;;;;;;;;;;525439;28;1281;-73
2022/02/20 01:40:59;;;;;;;4.50;1.40;;;;;;;;;;526263;28;796;-73
2022/02/20 01:41:18;;;;;;;4.73;1.50;;;;;;;;;;528570;28;843;-73
2022/02/20 01:41:33;;;;;;;6.10;1.52;;;;;;;;;;528125;28;1536;-74
2022/02/20 01:41:51;;;;;;;5.67;1.50;;;;;;;;;;528332;28;851;-73
2022/02/20 01:42:07;;;;;;;5.78;1.48;;;;;;;;;;527966;28;895;-75
2022/02/20 01:42:22;;;;;;;6.80;1.60;;;;;;;;;;526087;28;1358;-74
2022/02/20 01:42:37;;;;;;;6.03;1.55;;;;;;;;;;527571;28;812;-74
2022/02/20 01:42:53;;;;;;;6.20;1.50;;;;;;;;;;527422;28;965;-74
2022/02/20 01:43:10;;;;;;;7.43;1.60;;;;;;;;;;528290;28;1252;-74
2022/02/20 01:43:26;;;;;;;6.30;1.55;;;;;;;;;;528265;28;792;-74
2022/02/20 01:43:41;;;;;;;5.33;1.40;;;;;;;;;;528155;28;839;-73
2022/02/20 01:43:56;;;;;;;6.07;1.38;;;;;;;;;;527810;28;980;-73
2022/02/20 01:44:12;;;;;;;5.07;1.30;;;;;;;;;;528200;28;697;-73
2022/02/20 01:44:27;;;;;;;5.83;1.40;;;;;;;;;;530242;28;843;-74
2022/02/20 01:44:42;;;;;;;5.50;1.33;;;;;;;;;;530021;28;783;-73
2022/02/20 01:44:58;;;;;;;3.60;1.20;;;;;;;;;;528742;28;1571;-73
2022/02/20 01:45:15;;;;;;;4.43;1.23;;;;;;;;;;529165;27;989;-74
2022/02/20 01:45:30;;;;;;;5.78;1.50;;;;;;;;;;529242;27;950;-74
2022/02/20 01:45:46;;;;;;;5.80;1.60;;;;;;;;;;527899;28;869;-75
2022/02/20 01:46:01;;;;;;;6.13;1.53;;;;;;;;;;528039;28;1361;-75
2022/02/20 01:46:16;;;;;;;6.03;1.40;;;;;;;;;;529228;28;958;-74
2022/02/20 01:46:32;;;;;;;4.43;1.20;;;;;;;;;;530290;28;775;-74
2022/02/20 01:46:49;;;;;;;4.47;1.20;;;;;;;;;;530498;28;830;-74
2022/02/20 01:47:10;;;;;;;4.80;1.38;;;;;;;;;;529323;28;1059;-75
2022/02/20 01:47:25;;;;;;;4.90;1.40;;;;;;;;;;528340;28;808;-73
2022/02/20 01:47:41;;;;;;;5.65;1.55;;;;;;;;;;527960;28;887;-74
2022/02/20 01:47:56;;;;;;;5.57;1.40;;;;;;;;;;529785;28;801;-74
2022/02/20 01:48:11;;;;;;;5.57;1.37;;;;;;;;;;530577;27;954;-74
2022/02/20 01:48:30;;;;;;;5.43;1.40;;;;;;;;;;530383;28;891;-73
2022/02/20 01:48:46;;;;;;;5.25;1.45;;;;;;;;;;530119;28;880;-74
2022/02/20 01:49:02;;;;;;;4.72;1.40;;;;;;;;;;529507;28;821;-75
2022/02/20 01:49:20;;;;;;;6.45;1.55;;;;;;;;;;530189;28;928;-74
2022/02/20 01:49:36;;;;;;;6.25;1.50;;;;;;;;;;529481;28;965;-74
2022/02/20 01:49:51;;;;;;;4.95;1.40;;;;;;;;;;529863;28;965;-73
2022/02/20 01:50:08;;;;;;;5.23;1.40;;;;;;;;;;528984;28;1601;-74
2022/02/20 01:50:23;;;;;;;4.90;1.40;;;;;;;;;;529713;28;772;-73
2022/02/20 01:50:39;;;;;;;4.53;1.30;;;;;;;;;;528333;27;704;-74
2022/02/20 01:50:54;;;;;;;5.43;1.30;;;;;;;;;;528259;28;736;-74
2022/02/20 01:51:09;;;;;;;5.50;1.43;;;;;;;;;;528976;28;815;-74
2022/02/20 01:51:25;;;;;;;4.97;1.47;;;;;;;;;;530478;27;886;-72
2022/02/20 01:51:40;;;;;;;5.82;1.50;;;;;;;;;;530248;27;1309;-73
2022/02/20 01:51:56;;;;;;;5.80;1.50;;;;;;;;;;530452;27;987;-74
2022/02/20 01:52:11;;;;;;;5.23;1.47;;;;;;;;;;529357;27;732;-72
2022/02/20 01:52:27;;;;;;;5.17;1.43;;;;;;;;;;528703;28;954;-73
2022/02/20 01:52:43;;;;;;;5.28;1.40;;;;;;;;;;529000;28;738;-73
2022/02/20 01:52:59;;;;;;;4.63;1.30;;;;;;;;;;530754;27;1240;-74
2022/02/20 01:53:14;;;;;;;5.30;1.30;;;;;;;;;;530319;27;748;-74
2022/02/20 01:53:30;;;;;;;6.60;1.65;;;;;;;;;;530877;27;767;-73
2022/02/20 01:53:45;;;;;;;6.30;1.73;;;;;;;;;;530754;27;1161;-74
2022/02/20 01:54:00;;;;;;;5.47;1.53;;;;;;;;;;529922;27;774;-74
2022/02/20 01:54:16;;;;;;;5.18;1.35;;;;;;;;;;530938;27;969;-74
2022/02/20 01:54:31;;;;;;;5.40;1.40;;;;;;;;;;530604;27;847;-75
2022/02/20 01:54:46;;;;;;;4.50;1.40;;;;;;;;;;530471;27;855;-73
2022/02/20 01:55:07;;;;;;;4.37;1.33;;;;;;;;;;529009;27;1953;-75
2022/02/20 01:55:22;;;;;;;6.03;1.58;;;;;;;;;;528290;28;1230;-75
2022/02/20 01:55:38;;;;;;;6.50;1.55;;;;;;;;;;527340;28;1314;-74
2022/02/20 01:55:54;;;;;;;6.40;1.40;;;;;;;;;;529976;27;763;-74
2022/02/20 01:56:10;;;;;;;5.77;1.50;;;;;;;;;;528990;28;951;-74
2022/02/20 01:56:26;;;;;;;4.97;1.40;;;;;;;;;;528669;28;1005;-74
2022/02/20 01:56:41;;;;;;;4.90;1.50;;;;;;;;;;528655;28;1066;-74
2022/02/20 01:56:57;;;;;;;4.30;1.50;;;;;;;;;;529964;27;1073;-73
2022/02/20 01:57:12;;;;;;;4.38;1.35;;;;;;;;;;528884;27;735;-74
2022/02/20 01:57:28;;;;;;;5.27;1.37;;;;;;;;;;526554;28;1139;-74
2022/02/20 01:57:43;;;;;;;5.40;1.50;;;;;;;;;;529525;27;965;-75
2022/02/20 01:57:59;;;;;;;4.63;1.40;;;;;;;;;;528744;28;776;-74
2022/02/20 01:58:14;;;;;;;5.33;1.30;;;;;;;;;;528192;28;737;-74
2022/02/20 01:58:29;;;;;;;5.45;1.35;;;;;;;;;;526204;28;1147;-73
2022/02/20 01:58:45;;;;;;;4.50;1.30;;;;;;;;;;526546;28;917;-74
2022/02/20 01:59:01;;;;;;;4.80;1.30;;;;;;;;;;526066;28;768;-74
2022/02/20 01:59:17;;;;;;;5.43;1.30;;;;;;;;;;527013;28;800;-75
2022/02/20 01:59:32;;;;;;;6.68;1.38;;;;;;;;;;528249;28;978;-74
2022/02/20 01:59:47;;;;;;;7.57;1.60;;;;;;;;;;526477;28;1122;-74
2022/02/20 02:00:06;;;;;;;6.13;1.50;;;;;;;;;;527892;28;1499;-74
2022/02/20 02:00:22;;;;;;;5.03;1.38;;;;;;;;;;529484;27;752;-74
2022/02/20 02:00:38;;;;;;;6.30;1.33;;;;;;;;;;530509;27;921;-74
2022/02/20 02:00:54;;;;;;;6.90;1.50;;;;;;;;;;530620;27;796;-74
2022/02/20 02:01:09;;;;;;;5.10;1.43;;;;;;;;;;529188;27;912;-74
2022/02/20 02:01:24;;;;;;;5.18;1.30;;;;;;;;;;528594;28;764;-74
2022/02/20 02:01:40;;;;;;;5.00;1.20;;;;;;;;;;528467;28;851;-73
2022/02/20 02:01:55;;;;;;;4.87;1.30;;;;;;;;;;530286;27;773;-73